Time;durP1;ratioP1;P1;durP2;ratioP2;P2;SDS_P1;SDS_P2;PMS_P1;PMS_P2;Temp;Humidity;BMP_temperature;BMP_pressure;BME280_temperature;BME280_humidity;BME280_pressure;Samples;Min_cycle;Max_cycle;Signal;HPM_P1;HPM_P2
2024/04/26 00:02:26;;;;;;;12.73;3.42;;;13.50;69.00;;;;;;5415980;26;20006;-72
2024/04/26 00:04:53;;;;;;;12.73;3.38;;;13.50;69.00;;;;;;5415373;26;20392;-72
2024/04/26 00:07:19;;;;;;;14.35;3.63;;;13.50;69.60;;;;;;5415247;26;20006;-71
2024/04/26 00:09:45;;;;;;;12.88;3.97;;;13.50;69.00;;;;;;5415132;26;20352;-72
2024/04/26 00:12:14;;;;;;;13.70;2.80;;;13.50;69.10;;;;;;5415722;26;20030;-72
2024/04/26 00:14:40;;;;;;;12.02;3.80;;;13.60;69.40;;;;;;5415678;26;20119;-73
2024/04/26 00:17:07;;;;;;;13.10;3.65;;;13.50;69.20;;;;;;5415077;26;20000;-74
2024/04/26 00:19:33;;;;;;;12.40;3.35;;;13.60;69.40;;;;;;5414697;26;20011;-72
2024/04/26 00:21:58;;;;;;;10.70;3.20;;;13.50;69.30;;;;;;5414868;26;20111;-72
2024/04/26 00:24:24;;;;;;;13.77;3.20;;;13.50;69.30;;;;;;5414744;26;20042;-73
2024/04/26 00:26:50;;;;;;;19.60;4.82;;;13.50;69.40;;;;;;5415145;26;20351;-72
2024/04/26 00:29:17;;;;;;;15.07;3.30;;;13.40;69.40;;;;;;5414915;26;20459;-71
2024/04/26 00:31:43;;;;;;;11.23;3.00;;;13.40;69.60;;;;;;5414726;26;20000;-71
2024/04/26 00:34:08;;;;;;;14.50;3.10;;;13.30;69.70;;;;;;5416757;26;20006;-72
2024/04/26 00:36:39;;;;;;;20.90;4.05;;;13.30;69.70;;;;;;5418578;26;20007;-71
2024/04/26 00:39:04;;;;;;;16.73;3.85;;;13.20;69.90;;;;;;5418651;26;20010;-72
2024/04/26 00:41:30;;;;;;;9.98;2.60;;;13.20;69.90;;;;;;5418722;26;20000;-72
2024/04/26 00:44:11;;;;;;;19.23;2.97;;;13.20;70.00;;;;;;5418388;26;19996;-73
2024/04/26 00:46:44;;;;;;;10.63;3.28;;;13.10;69.90;;;;;;5418235;26;20069;-72
2024/04/26 00:49:10;;;;;;;14.80;3.55;;;13.10;70.10;;;;;;5418970;26;20480;-72
2024/04/26 00:51:37;;;;;;;13.35;2.80;;;13.10;70.10;;;;;;5418113;26;20004;-72
2024/04/26 00:54:04;;;;;;;10.57;3.17;;;13.00;70.10;;;;;;5418137;26;20451;-72
2024/04/26 00:56:30;;;;;;;12.60;3.03;;;13.10;70.20;;;;;;5417847;26;19995;-72
2024/04/26 00:58:56;;;;;;;13.85;3.53;;;13.00;70.00;;;;;;5418147;26;20084;-71
2024/04/26 01:01:23;;;;;;;15.30;3.40;;;12.90;70.00;;;;;;5417551;26;20023;-71
2024/04/26 01:03:49;;;;;;;12.13;3.00;;;13.00;70.10;;;;;;5417888;26;19995;-71
2024/04/26 01:06:15;;;;;;;11.95;3.03;;;13.00;70.20;;;;;;5417821;26;20010;-71
2024/04/26 01:08:40;;;;;;;18.20;3.17;;;12.90;70.30;;;;;;5417771;26;20019;-72
2024/04/26 01:11:10;;;;;;;15.80;3.17;;;12.90;70.20;;;;;;5417541;26;20005;-72
2024/04/26 01:13:37;;;;;;;10.65;2.83;;;12.90;70.20;;;;;;5417580;26;20011;-72
2024/04/26 01:16:04;;;;;;;11.48;2.85;;;12.90;70.20;;;;;;5418076;26;20073;-71
2024/04/26 01:18:29;;;;;;;15.45;2.97;;;12.90;70.10;;;;;;5417809;26;20010;-71
2024/04/26 01:20:56;;;;;;;11.52;3.08;;;12.90;70.00;;;;;;5417620;26;19999;-72
2024/04/26 01:23:22;;;;;;;18.15;3.53;;;12.90;70.20;;;;;;5417664;26;20003;-72
2024/04/26 01:26:02;;;;;;;17.65;3.30;;;12.90;70.20;;;;;;5417562;26;20006;-72
2024/04/26 01:28:29;;;;;;;11.63;2.97;;;12.90;70.30;;;;;;5417784;26;20473;-72
2024/04/26 01:30:55;;;;;;;14.40;3.03;;;12.90;70.30;;;;;;5417652;26;19996;-72
2024/04/26 01:33:21;;;;;;;9.15;2.88;;;12.90;70.30;;;;;;5417452;26;19996;-72
2024/04/26 01:35:47;;;;;;;14.23;3.10;;;12.80;70.30;;;;;;5386250;26;19995;-71
2024/04/26 01:38:12;;;;;;;11.40;2.80;;;12.80;70.60;;;;;;5417282;26;20011;-72
2024/04/26 01:40:38;;;;;;;18.02;3.00;;;12.80;70.40;;;;;;5417253;26;19995;-72
2024/04/26 01:43:04;;;;;;;15.40;3.28;;;12.80;70.50;;;;;;5417108;26;20003;-71
2024/04/26 01:45:30;;;;;;;15.60;2.95;;;12.80;70.60;;;;;;5416865;26;19999;-71
2024/04/26 01:47:56;;;;;;;11.95;3.55;;;12.90;70.80;;;;;;5417540;26;20057;-74
2024/04/26 01:50:22;;;;;;;11.48;3.17;;;12.80;70.60;;;;;;5417651;26;20075;-72
2024/04/26 01:52:49;;;;;;;17.83;3.40;;;12.80;70.80;;;;;;5417353;26;20331;-71
2024/04/26 01:55:15;;;;;;;13.80;3.05;;;12.80;70.80;;;;;;5416978;26;20023;-71
2024/04/26 01:57:41;;;;;;;17.45;3.10;;;12.80;70.80;;;;;;5385436;26;20020;-71
2024/04/26 02:00:08;;;;;;;17.23;2.97;;;12.80;70.90;;;;;;5417104;26;20053;-72
2024/04/26 02:02:34;;;;;;;13.55;3.38;;;12.80;71.00;;;;;;5416885;26;20011;-71
2024/04/26 02:05:00;;;;;;;16.08;3.63;;;12.80;71.20;;;;;;5416971;26;20003;-73
2024/04/26 02:07:25;;;;;;;17.65;3.17;;;12.80;71.20;;;;;;5385545;26;20438;-72
2024/04/26 02:09:51;;;;;;;13.80;3.58;;;12.90;71.20;;;;;;5417434;26;20011;-72
2024/04/26 02:12:17;;;;;;;16.00;3.67;;;12.80;71.20;;;;;;5417119;26;19995;-72
2024/04/26 02:14:43;;;;;;;16.75;3.55;;;12.90;71.30;;;;;;5417259;26;20010;-72
2024/04/26 02:17:09;;;;;;;12.10;2.60;;;12.90;71.30;;;;;;5416849;26;20000;-72
2024/04/26 02:19:35;;;;;;;14.00;3.20;;;12.90;71.40;;;;;;5416640;26;20364;-72
2024/04/26 02:22:00;;;;;;;11.77;2.65;;;12.80;71.50;;;;;;5416586;26;20075;-70
2024/04/26 02:24:26;;;;;;;11.30;3.03;;;12.90;71.50;;;;;;5416471;26;19999;-72
2024/04/26 02:26:52;;;;;;;11.05;2.92;;;12.90;71.60;;;;;;5416370;26;19996;-73
2024/04/26 02:29:17;;;;;;;14.82;3.22;;;12.90;71.70;;;;;;5416594;26;20078;-72
2024/04/26 02:31:43;;;;;;;17.75;4.00;;;12.80;71.70;;;;;;5416255;26;20343;-73
2024/04/26 02:34:09;;;;;;;11.27;3.03;;;12.80;71.80;;;;;;5416620;26;19999;-72
2024/04/26 02:36:34;;;;;;;10.23;2.40;;;12.80;71.90;;;;;;5417146;26;20427;-72
2024/04/26 02:39:00;;;;;;;13.68;3.38;;;12.80;72.10;;;;;;5416794;26;20010;-72
2024/04/26 02:41:26;;;;;;;17.73;3.13;;;12.80;72.30;;;;;;5416403;26;20003;-72
2024/04/26 02:43:51;;;;;;;17.55;3.47;;;12.80;72.40;;;;;;5416438;26;20010;-72
2024/04/26 02:46:17;;;;;;;14.65;3.15;;;12.80;72.20;;;;;;5416469;26;20006;-71
2024/04/26 02:48:43;;;;;;;12.73;2.90;;;12.70;72.50;;;;;;5416916;26;20004;-72
2024/04/26 02:51:12;;;;;;;14.20;3.35;;;12.70;72.40;;;;;;5417786;26;19996;-70
2024/04/26 02:53:41;;;;;;;14.20;3.17;;;12.70;72.70;;;;;;5416321;26;20090;-72
2024/04/26 02:56:08;;;;;;;11.85;2.88;;;12.70;72.60;;;;;;5415798;26;20027;-71
2024/04/26 02:58:34;;;;;;;15.65;2.80;;;12.70;72.70;;;;;;5385019;26;20006;-72
2024/04/26 03:01:00;;;;;;;12.05;3.20;;;12.70;72.80;;;;;;5416094;26;19996;-71
2024/04/26 03:03:27;;;;;;;13.98;3.35;;;12.60;73.00;;;;;;5417022;26;20002;-71
2024/04/26 03:05:52;;;;;;;16.67;3.38;;;12.60;73.20;;;;;;5385166;26;19996;-73
2024/04/26 03:08:18;;;;;;;12.82;3.00;;;12.60;73.20;;;;;;5416213;26;20450;-71
2024/04/26 03:10:44;;;;;;;12.43;3.20;;;12.60;73.50;;;;;;5416139;26;20023;-71
2024/04/26 03:13:10;;;;;;;13.55;3.13;;;12.60;73.50;;;;;;5416148;26;20022;-71
2024/04/26 03:15:35;;;;;;;16.13;3.05;;;12.50;73.50;;;;;;5385137;26;20315;-71
2024/04/26 03:18:01;;;;;;;12.65;3.20;;;12.50;73.70;;;;;;5415974;26;20454;-73
2024/04/26 03:20:27;;;;;;;14.43;2.78;;;12.50;73.80;;;;;;5415911;26;19996;-71
2024/04/26 03:22:55;;;;;;;15.05;2.90;;;12.40;73.80;;;;;;5416343;26;20437;-71
2024/04/26 03:25:21;;;;;;;16.50;3.50;;;12.40;74.00;;;;;;5415635;26;19999;-73
2024/04/26 03:27:47;;;;;;;16.98;2.72;;;12.40;74.10;;;;;;5416018;26;20439;-73
2024/04/26 03:30:12;;;;;;;15.98;3.17;;;12.30;74.10;;;;;;5416061;26;20006;-73
2024/04/26 03:32:38;;;;;;;12.20;3.05;;;12.30;74.10;;;;;;5416080;26;20393;-71
2024/04/26 03:35:04;;;;;;;17.05;3.30;;;12.30;74.30;;;;;;5383999;26;19996;-72
2024/04/26 03:37:30;;;;;;;11.80;3.10;;;12.30;74.40;;;;;;5415862;26;19999;-71
2024/04/26 03:39:55;;;;;;;11.02;3.50;;;12.30;74.40;;;;;;5415849;26;20003;-72
2024/04/26 03:42:21;;;;;;;12.95;3.35;;;12.30;74.50;;;;;;5416120;26;20126;-72
2024/04/26 03:44:47;;;;;;;16.80;3.97;;;12.20;74.40;;;;;;5416765;26;20398;-72
2024/04/26 03:47:12;;;;;;;10.50;2.63;;;12.20;74.50;;;;;;5384267;26;20374;-72
2024/04/26 03:49:38;;;;;;;15.85;3.20;;;12.20;74.50;;;;;;5415533;26;20008;-72
2024/04/26 03:52:03;;;;;;;16.65;3.00;;;12.10;74.50;;;;;;5415655;26;20347;-71
2024/04/26 03:54:31;;;;;;;14.80;2.90;;;12.10;74.70;;;;;;5415280;26;20000;-72
2024/04/26 03:56:58;;;;;;;10.23;2.83;;;12.10;74.80;;;;;;5415222;26;20010;-73
2024/04/26 03:59:24;;;;;;;12.82;3.13;;;12.10;74.70;;;;;;5415524;26;20011;-71
2024/04/26 04:01:50;;;;;;;12.95;2.75;;;12.00;74.80;;;;;;5415305;26;20069;-73
2024/04/26 04:04:16;;;;;;;12.68;2.97;;;12.00;74.70;;;;;;5415328;26;20059;-72
2024/04/26 04:06:41;;;;;;;12.07;2.55;;;12.00;75.60;;;;;;5415216;26;20447;-71
2024/04/26 04:09:07;;;;;;;13.65;2.92;;;12.00;75.00;;;;;;5416995;26;20007;-71
2024/04/26 04:11:33;;;;;;;14.40;3.17;;;12.00;75.10;;;;;;5418441;26;20007;-72
2024/04/26 04:13:59;;;;;;;11.30;2.97;;;12.00;75.20;;;;;;5418811;26;20011;-73
2024/04/26 04:16:25;;;;;;;11.63;3.10;;;12.00;75.00;;;;;;5418617;26;20110;-73
2024/04/26 04:18:50;;;;;;;13.40;3.33;;;12.10;75.40;;;;;;5418899;26;19995;-71
2024/04/26 04:21:16;;;;;;;10.82;3.40;;;12.10;75.20;;;;;;5418960;26;20056;-73
2024/04/26 04:23:42;;;;;;;11.30;2.30;;;12.00;75.30;;;;;;5418807;26;20072;-73
2024/04/26 04:26:08;;;;;;;14.50;3.50;;;12.00;75.70;;;;;;5419044;26;19995;-72
2024/04/26 04:28:33;;;;;;;10.00;2.50;;;12.00;75.70;;;;;;5418491;26;20072;-73
2024/04/26 04:30:59;;;;;;;11.13;2.85;;;12.00;75.60;;;;;;5418802;26;19995;-72
2024/04/26 04:33:25;;;;;;;13.23;2.83;;;12.00;75.60;;;;;;5418669;26;19996;-72
2024/04/26 04:35:53;;;;;;;16.13;2.97;;;12.00;75.80;;;;;;5418787;26;20065;-72
2024/04/26 04:38:19;;;;;;;15.43;3.83;;;12.00;76.20;;;;;;5418342;26;19995;-72
2024/04/26 04:40:45;;;;;;;12.23;2.83;;;12.00;75.60;;;;;;5418606;26;19999;-72
2024/04/26 04:43:10;;;;;;;13.23;3.22;;;12.10;75.50;;;;;;5418689;26;20008;-72
2024/04/26 04:45:36;;;;;;;12.15;3.45;;;12.10;75.40;;;;;;5419054;26;20015;-72
2024/04/26 04:48:02;;;;;;;11.52;3.10;;;12.20;75.60;;;;;;5418070;26;19999;-72
2024/04/26 04:50:28;;;;;;;9.25;3.08;;;12.20;75.40;;;;;;5387340;26;20054;-73
2024/04/26 04:52:53;;;;;;;17.33;3.42;;;12.30;75.30;;;;;;5418837;26;20000;-73
2024/04/26 04:55:19;;;;;;;10.52;2.85;;;12.40;75.40;;;;;;5418848;26;20049;-72
2024/04/26 04:57:44;;;;;;;12.00;2.70;;;12.40;75.00;;;;;;5418664;26;19999;-71
2024/04/26 05:00:11;;;;;;;14.57;2.55;;;12.50;75.20;;;;;;5419400;26;20069;-73
2024/04/26 05:02:36;;;;;;;13.77;2.83;;;12.50;75.00;;;;;;5418037;26;20000;-72
2024/04/26 05:05:02;;;;;;;10.18;3.30;;;12.60;74.80;;;;;;5386633;26;20007;-73
2024/04/26 05:07:28;;;;;;;8.90;2.75;;;12.60;74.80;;;;;;5357343;26;20100;-73
2024/04/26 05:09:53;;;;;;;11.68;3.60;;;12.70;75.10;;;;;;5418309;26;20069;-72
2024/04/26 05:12:19;;;;;;;9.65;3.08;;;12.70;75.00;;;;;;5418020;26;20011;-73
2024/04/26 05:14:44;;;;;;;10.90;3.35;;;12.70;75.00;;;;;;5417945;26;20010;-72
2024/04/26 05:17:11;;;;;;;10.07;3.00;;;12.80;75.10;;;;;;5386529;26;20007;-72
2024/04/26 05:19:36;;;;;;;11.40;3.38;;;12.90;74.90;;;;;;5417842;26;20005;-72
2024/04/26 05:22:02;;;;;;;11.30;3.33;;;13.00;74.80;;;;;;5418328;26;20347;-72
2024/04/26 05:24:28;;;;;;;12.82;3.30;;;13.10;74.60;;;;;;5418067;26;20065;-72
2024/04/26 05:26:54;;;;;;;12.02;3.42;;;13.20;74.90;;;;;;5418038;26;19995;-72
2024/04/26 05:29:20;;;;;;;10.48;2.90;;;13.30;74.10;;;;;;5417633;26;20010;-71
2024/04/26 05:31:48;;;;;;;10.82;3.08;;;13.50;73.90;;;;;;5417487;26;19995;-73
2024/04/26 05:34:14;;;;;;;7.90;2.75;;;13.60;73.30;;;;;;5417693;26;20007;-73
2024/04/26 05:36:39;;;;;;;15.70;3.25;;;13.90;73.10;;;;;;5417719;26;19996;-72
2024/04/26 05:39:05;;;;;;;12.25;3.10;;;14.00;72.60;;;;;;5418074;26;20000;-73
2024/04/26 05:41:31;;;;;;;15.93;3.63;;;14.10;72.40;;;;;;5417509;26;20014;-74
2024/04/26 05:43:57;;;;;;;11.00;3.20;;;14.00;72.50;;;;;;5418090;26;19999;-73
2024/04/26 05:46:23;;;;;;;8.98;3.53;;;14.00;72.60;;;;;;5417670;26;20371;-72
2024/04/26 05:48:49;;;;;;;10.43;3.35;;;14.00;72.70;;;;;;5417686;26;19996;-72
2024/04/26 05:51:16;;;;;;;13.10;3.13;;;14.00;72.80;;;;;;5418088;26;20516;-73
2024/04/26 05:53:42;;;;;;;15.43;3.60;;;13.90;73.10;;;;;;5417269;26;20003;-73
2024/04/26 05:56:08;;;;;;;16.20;3.17;;;13.90;73.20;;;;;;5386326;26;20007;-71
2024/04/26 05:58:34;;;;;;;20.52;3.78;;;13.90;73.20;;;;;;5417443;26;20006;-73
2024/04/26 06:01:00;;;;;;;13.20;2.70;;;13.90;73.10;;;;;;5417333;26;20342;-71
2024/04/26 06:03:26;;;;;;;17.45;3.22;;;14.00;73.20;;;;;;5417196;26;20027;-72
2024/04/26 06:05:52;;;;;;;15.07;3.97;;;14.10;73.10;;;;;;5417757;26;20007;-72
2024/04/26 06:08:18;;;;;;;12.02;3.17;;;14.20;73.00;;;;;;5417191;26;19995;-72
2024/04/26 06:10:44;;;;;;;13.50;3.25;;;14.30;72.80;;;;;;5416754;26;20006;-73
2024/04/26 06:13:10;;;;;;;19.58;3.92;;;14.40;72.60;;;;;;5416626;26;20454;-72
2024/04/26 06:15:38;;;;;;;13.43;3.17;;;14.50;72.50;;;;;;5417086;26;19995;-72
2024/04/26 06:18:04;;;;;;;11.77;3.42;;;14.50;72.60;;;;;;5416855;26;19995;-73
2024/04/26 06:20:31;;;;;;;12.23;3.30;;;14.50;72.60;;;;;;5416741;26;20005;-72
2024/04/26 06:22:57;;;;;;;16.52;3.85;;;14.50;72.50;;;;;;5416578;26;20052;-74
2024/04/26 06:25:25;;;;;;;14.45;3.30;;;14.70;72.50;;;;;;5416632;26;19996;-72
2024/04/26 06:27:52;;;;;;;13.32;3.42;;;14.80;72.20;;;;;;5416485;26;20501;-72
2024/04/26 06:30:17;;;;;;;10.70;3.22;;;14.90;72.00;;;;;;5416338;26;20012;-73
2024/04/26 06:32:43;;;;;;;11.15;2.83;;;15.00;72.00;;;;;;5415609;26;20000;-72
2024/04/26 06:35:09;;;;;;;18.33;3.85;;;15.10;71.80;;;;;;5417250;26;20000;-73
2024/04/26 06:37:34;;;;;;;16.60;3.97;;;15.30;71.50;;;;;;5385583;26;19995;-73
2024/04/26 06:40:00;;;;;;;11.13;3.05;;;16.00;70.70;;;;;;5416658;26;20447;-71
2024/04/26 06:42:26;;;;;;;14.18;3.25;;;16.30;69.60;;;;;;5417122;26;20006;-73
2024/04/26 06:44:52;;;;;;;15.77;4.05;;;16.30;68.90;;;;;;5417187;26;20331;-72
2024/04/26 06:47:19;;;;;;;19.63;3.30;;;16.70;68.80;;;;;;5417012;26;19999;-73
2024/04/26 06:49:45;;;;;;;17.52;4.07;;;17.30;66.90;;;;;;5416917;26;19995;-73
2024/04/26 06:52:11;;;;;;;19.02;3.15;;;18.20;66.00;;;;;;5417239;26;19996;-74
2024/04/26 06:54:37;;;;;;;12.13;3.03;;;18.30;64.40;;;;;;5416678;26;20087;-72
2024/04/26 06:57:04;;;;;;;15.25;3.17;;;18.60;63.50;;;;;;5417216;26;20444;-73
2024/04/26 06:59:30;;;;;;;18.42;3.15;;;18.50;63.40;;;;;;5416448;26;19995;-73
2024/04/26 07:01:56;;;;;;;18.90;3.00;;;18.40;63.30;;;;;;5416190;26;20073;-73
2024/04/26 07:04:22;;;;;;;17.02;3.10;;;18.20;63.50;;;;;;5416636;26;20003;-75
2024/04/26 07:06:48;;;;;;;19.35;2.85;;;18.00;63.50;;;;;;5416484;26;20157;-74
2024/04/26 07:09:14;;;;;;;13.48;3.28;;;17.90;63.50;;;;;;5416364;26;19996;-73
2024/04/26 07:11:43;;;;;;;16.58;2.75;;;17.80;63.60;;;;;;5385135;26;20000;-74
2024/04/26 07:14:09;;;;;;;23.92;3.65;;;18.00;63.50;;;;;;5416536;26;20356;-74
2024/04/26 07:16:35;;;;;;;12.85;2.95;;;18.90;62.60;;;;;;5416145;26;20006;-74
2024/04/26 07:19:01;;;;;;;15.05;3.05;;;19.70;60.80;;;;;;5415878;26;20009;-75
2024/04/26 07:21:26;;;;;;;11.80;2.70;;;20.70;59.50;;;;;;5416470;26;20072;-73
2024/04/26 07:23:52;;;;;;;14.23;2.33;;;21.30;57.10;;;;;;5416512;26;20003;-75
2024/04/26 07:26:20;;;;;;;7.95;2.47;;;21.50;55.90;;;;;;5416174;26;19999;-74
2024/04/26 07:28:46;;;;;;;13.02;3.30;;;20.70;56.80;;;;;;5415572;26;20007;-74
2024/04/26 07:31:11;;;;;;;22.17;3.20;;;20.30;57.90;;;;;;5416104;26;20067;-74
2024/04/26 07:33:37;;;;;;;16.83;4.63;;;20.20;58.50;;;;;;5415661;26;20000;-76
2024/04/26 07:36:03;;;;;;;16.42;3.60;;;20.00;58.90;;;;;;5415901;26;20049;-73
2024/04/26 07:38:29;;;;;;;12.73;2.55;;;19.80;59.20;;;;;;5416072;26;19991;-74
2024/04/26 07:40:54;;;;;;;12.65;2.13;;;19.70;58.50;;;;;;5416377;26;19995;-74
2024/04/26 07:43:20;;;;;;;13.00;2.47;;;19.60;58.60;;;;;;5415662;26;20081;-74
2024/04/26 07:45:46;;;;;;;13.00;2.35;;;19.50;58.20;;;;;;5415923;26;19999;-73
2024/04/26 07:48:11;;;;;;;9.32;1.92;;;19.40;58.30;;;;;;5416016;26;20006;-73
2024/04/26 07:50:37;;;;;;;10.77;2.20;;;19.20;58.10;;;;;;5415804;26;19999;-75
2024/04/26 07:53:03;;;;;;;7.40;2.25;;;19.10;58.30;;;;;;5415514;26;20000;-76
2024/04/26 07:55:29;;;;;;;7.97;2.10;;;19.00;58.60;;;;;;5415408;26;20546;-74
2024/04/26 07:57:54;;;;;;;12.02;2.28;;;18.80;58.30;;;;;;5415714;26;20007;-74
2024/04/26 08:00:20;;;;;;;8.38;1.92;;;18.80;58.50;;;;;;5415939;26;20004;-73
2024/04/26 08:02:46;;;;;;;13.85;2.53;;;18.70;58.50;;;;;;5415683;26;19999;-75
2024/04/26 08:05:11;;;;;;;14.32;2.15;;;18.70;58.70;;;;;;5415894;26;20003;-73
2024/04/26 08:07:37;;;;;;;9.48;2.33;;;18.80;58.30;;;;;;5415658;26;20008;-74
2024/04/26 08:10:03;;;;;;;15.02;2.78;;;18.80;58.20;;;;;;5414891;26;20431;-74
2024/04/26 08:12:28;;;;;;;13.15;2.45;;;18.90;58.80;;;;;;5415543;26;20308;-74
2024/04/26 08:14:54;;;;;;;11.70;2.80;;;18.80;58.10;;;;;;5415315;26;20006;-73
2024/04/26 08:17:20;;;;;;;15.90;3.13;;;18.80;58.30;;;;;;5415293;26;20011;-74
2024/04/26 08:19:45;;;;;;;9.27;2.05;;;18.70;58.30;;;;;;5414625;26;20337;-73
2024/04/26 08:22:11;;;;;;;9.85;1.98;;;18.70;58.40;;;;;;5415082;26;20006;-74
2024/04/26 08:24:37;;;;;;;13.23;2.22;;;18.70;57.80;;;;;;5414458;26;19999;-73
2024/04/26 08:27:02;;;;;;;9.43;2.03;;;18.70;57.30;;;;;;5414462;26;19999;-73
2024/04/26 08:29:31;;;;;;;6.82;1.83;;;18.70;57.60;;;;;;5414218;26;20064;-75
2024/04/26 08:31:57;;;;;;;12.68;2.72;;;18.60;57.50;;;;;;5414976;26;20009;-74
2024/04/26 08:34:24;;;;;;;9.32;2.70;;;18.60;57.60;;;;;;5414385;26;20000;-73
2024/04/26 08:36:50;;;;;;;12.30;2.28;;;18.60;57.50;;;;;;5414592;26;19995;-74
2024/04/26 08:39:16;;;;;;;7.20;2.33;;;18.50;57.10;;;;;;5414117;26;20007;-74
2024/04/26 08:41:42;;;;;;;9.60;2.28;;;18.50;57.40;;;;;;5414748;26;20069;-74
2024/04/26 08:44:10;;;;;;;15.52;2.45;;;18.50;56.90;;;;;;5415138;26;20316;-75
2024/04/26 08:46:37;;;;;;;10.93;2.28;;;18.50;57.10;;;;;;5414638;26;20007;-73
2024/04/26 08:49:03;;;;;;;11.35;2.25;;;18.70;56.90;;;;;;5414636;26;19995;-73
2024/04/26 08:51:31;;;;;;;8.65;2.20;;;18.70;56.40;;;;;;5414258;26;19996;-73
2024/04/26 08:53:57;;;;;;;9.80;2.88;;;18.80;56.30;;;;;;5383720;26;20338;-74
2024/04/26 08:56:24;;;;;;;9.40;2.45;;;18.90;56.50;;;;;;5418366;26;20000;-74
2024/04/26 08:58:50;;;;;;;6.07;2.20;;;19.00;56.30;;;;;;5417726;26;19996;-73
2024/04/26 09:01:17;;;;;;;7.60;2.25;;;19.00;55.60;;;;;;5417817;26;19999;-74
2024/04/26 09:03:43;;;;;;;10.23;2.60;;;18.90;55.10;;;;;;5417212;26;20451;-73
2024/04/26 09:06:14;;;;;;;7.57;2.25;;;18.90;55.20;;;;;;5417037;26;20106;-72
2024/04/26 09:08:40;;;;;;;7.13;2.17;;;18.80;55.20;;;;;;5416940;26;20454;-73
2024/04/26 09:11:05;;;;;;;13.27;2.78;;;18.60;55.90;;;;;;5417363;26;19999;-72
2024/04/26 09:13:31;;;;;;;7.78;2.20;;;18.50;56.20;;;;;;5417952;26;20031;-73
2024/04/26 09:15:57;;;;;;;12.88;2.67;;;18.40;56.90;;;;;;5417550;26;20453;-74
2024/04/26 09:18:22;;;;;;;13.02;2.45;;;18.30;57.40;;;;;;5417994;26;20068;-74
2024/04/26 09:20:48;;;;;;;13.68;2.70;;;18.40;57.80;;;;;;5417385;26;20000;-73
2024/04/26 09:23:14;;;;;;;16.23;4.07;;;18.40;58.10;;;;;;5385837;26;19999;-73
2024/04/26 09:25:40;;;;;;;10.65;2.60;;;18.60;58.30;;;;;;5417431;26;20035;-74
2024/04/26 09:28:12;;;;;;;5.90;1.75;;;18.70;57.00;;;;;;5417750;26;19999;-74
2024/04/26 09:30:48;;;;;;;7.40;1.75;;;18.90;55.60;;;;;;5386418;26;20343;-75
2024/04/26 09:33:21;;;;;;;7.00;1.80;;;19.10;54.40;;;;;;5386423;26;20083;-74
2024/04/26 09:35:48;;;;;;;9.23;1.88;;;19.20;54.00;;;;;;5417587;26;20374;-74
2024/04/26 09:38:19;;;;;;;9.60;2.20;;;19.40;54.00;;;;;;5418373;26;20003;-74
2024/04/26 09:40:47;;;;;;;8.18;2.03;;;19.60;54.00;;;;;;5417823;26;19995;-74
2024/04/26 09:43:13;;;;;;;6.97;2.20;;;19.60;54.80;;;;;;5418056;26;20135;-73
2024/04/26 09:45:41;;;;;;;10.23;2.67;;;19.60;54.40;;;;;;5417416;26;20358;-74
2024/04/26 09:48:08;;;;;;;15.52;3.47;;;19.60;54.50;;;;;;5416756;26;19996;-72
2024/04/26 09:50:35;;;;;;;10.60;2.30;;;19.60;54.00;;;;;;5416739;26;20007;-74
2024/04/26 09:53:01;;;;;;;9.48;2.10;;;19.60;54.00;;;;;;5417035;26;20089;-74
2024/04/26 09:55:27;;;;;;;8.05;1.92;;;19.60;54.20;;;;;;5385467;26;20042;-74
2024/04/26 09:57:54;;;;;;;9.68;2.17;;;19.70;54.10;;;;;;5416794;26;20071;-73
2024/04/26 10:00:20;;;;;;;6.93;2.17;;;19.60;54.40;;;;;;5417167;26;19995;-74
2024/04/26 10:02:54;;;;;;;6.05;2.00;;;19.60;54.60;;;;;;5385616;26;19995;-75
2024/04/26 10:05:20;;;;;;;10.63;2.55;;;19.60;54.80;;;;;;5416632;26;20404;-72
2024/04/26 10:08:03;;;;;;;11.68;4.00;;;19.60;55.00;;;;;;5385804;26;20006;-75
2024/04/26 10:10:34;;;;;;;11.35;2.70;;;19.60;54.90;;;;;;5417191;26;20000;-74
2024/04/26 10:13:15;;;;;;;15.25;2.50;;;19.70;55.00;;;;;;5417467;26;19999;-73
2024/04/26 10:15:56;;;;;;;12.10;3.00;;;19.50;54.90;;;;;;5416813;26;19995;-75
2024/04/26 10:18:34;;;;;;;8.60;2.38;;;19.40;56.20;;;;;;5417348;26;19996;-73
2024/04/26 10:21:00;;;;;;;14.75;2.67;;;19.30;55.00;;;;;;5417109;26;20010;-73
2024/04/26 10:23:26;;;;;;;6.25;2.22;;;19.30;55.30;;;;;;5416809;26;20403;-73
2024/04/26 10:25:51;;;;;;;9.85;2.40;;;19.40;55.40;;;;;;5417196;26;20010;-73
2024/04/26 10:28:17;;;;;;;11.25;2.33;;;19.30;55.30;;;;;;5417253;26;20011;-73
2024/04/26 10:30:50;;;;;;;6.60;2.22;;;19.30;55.40;;;;;;5416918;26;20007;-73
2024/04/26 10:33:17;;;;;;;7.18;2.08;;;19.10;56.50;;;;;;5416714;26;20439;-73
2024/04/26 10:35:44;;;;;;;9.32;2.83;;;19.00;55.70;;;;;;5415953;26;20085;-74
2024/04/26 10:38:10;;;;;;;8.55;2.58;;;18.90;56.00;;;;;;5416596;26;19999;-72
2024/04/26 10:40:49;;;;;;;8.82;2.13;;;18.90;56.20;;;;;;5416438;26;19999;-74
2024/04/26 10:43:25;;;;;;;13.52;2.78;;;18.80;56.40;;;;;;5416886;26;20000;-74
2024/04/26 10:45:56;;;;;;;11.50;2.38;;;18.80;56.80;;;;;;5416863;26;20374;-73
2024/04/26 10:48:22;;;;;;;7.63;2.00;;;18.70;57.00;;;;;;5416365;26;19995;-73
2024/04/26 10:50:59;;;;;;;9.27;2.20;;;18.60;57.10;;;;;;5416613;26;20010;-73
2024/04/26 10:53:24;;;;;;;10.68;2.80;;;18.60;57.40;;;;;;5416524;26;19995;-73
2024/04/26 10:55:50;;;;;;;7.00;2.20;;;18.50;57.70;;;;;;5416848;26;20458;-74
2024/04/26 10:58:16;;;;;;;7.78;2.50;;;18.50;57.80;;;;;;5416116;26;19995;-72
2024/04/26 11:00:42;;;;;;;10.10;2.33;;;18.50;57.80;;;;;;5385086;26;19995;-73
2024/04/26 11:03:08;;;;;;;8.85;2.33;;;18.50;58.00;;;;;;5415867;26;20004;-74
2024/04/26 11:05:54;;;;;;;12.57;1.90;;;18.40;57.80;;;;;;5416271;26;20011;-73
2024/04/26 11:08:27;;;;;;;14.07;2.53;;;18.40;57.90;;;;;;5415651;26;19999;-74
2024/04/26 11:10:54;;;;;;;8.68;2.50;;;18.30;58.20;;;;;;5416050;26;20528;-73
2024/04/26 11:13:23;;;;;;;12.05;2.40;;;18.30;58.40;;;;;;5416386;26;20010;-73
2024/04/26 11:15:53;;;;;;;8.95;2.30;;;18.30;58.40;;;;;;5416229;26;19995;-73
2024/04/26 11:18:19;;;;;;;8.05;2.85;;;18.30;58.40;;;;;;5415875;26;19996;-74
2024/04/26 11:20:45;;;;;;;9.45;2.42;;;18.50;58.30;;;;;;5416104;26;19994;-73
2024/04/26 11:23:11;;;;;;;9.18;2.88;;;18.60;57.90;;;;;;5415611;26;20006;-73
2024/04/26 11:25:36;;;;;;;7.55;2.10;;;18.90;57.50;;;;;;5416264;26;20380;-74
2024/04/26 11:28:02;;;;;;;9.55;2.33;;;19.10;57.40;;;;;;5416009;26;20069;-74
2024/04/26 11:30:29;;;;;;;7.40;2.08;;;19.30;56.50;;;;;;5415639;26;19999;-73
2024/04/26 11:32:55;;;;;;;11.50;2.50;;;19.50;56.30;;;;;;5416618;26;20000;-73
2024/04/26 11:35:21;;;;;;;8.10;2.10;;;19.50;56.00;;;;;;5415915;26;20450;-74
2024/04/26 11:37:46;;;;;;;9.23;2.40;;;19.50;56.10;;;;;;5416122;26;20015;-73
2024/04/26 11:40:12;;;;;;;8.45;1.92;;;19.50;56.10;;;;;;5415951;26;20000;-73
2024/04/26 11:42:38;;;;;;;11.10;4.47;;;19.40;56.10;;;;;;5415684;26;20023;-73
2024/04/26 11:45:04;;;;;;;10.95;3.08;;;19.40;55.80;;;;;;5415803;26;20002;-74
2024/04/26 11:47:29;;;;;;;6.43;1.75;;;19.40;55.40;;;;;;5415894;26;20068;-74
2024/04/26 11:49:55;;;;;;;5.60;1.50;;;19.60;54.60;;;;;;5415751;26;20024;-74
2024/04/26 11:52:21;;;;;;;8.10;2.00;;;19.80;54.00;;;;;;5415873;26;20000;-74
2024/04/26 11:54:46;;;;;;;6.28;1.48;;;20.10;53.80;;;;;;5415876;26;20009;-74
2024/04/26 11:57:12;;;;;;;4.90;1.60;;;20.30;53.20;;;;;;5415673;26;19997;-74
2024/04/26 11:59:38;;;;;;;6.25;1.45;;;20.50;52.90;;;;;;5415659;26;20434;-73
2024/04/26 12:02:03;;;;;;;7.32;2.00;;;20.50;52.80;;;;;;5416116;26;20413;-74
2024/04/26 12:04:29;;;;;;;9.25;1.95;;;20.50;52.80;;;;;;5416223;26;20316;-73
2024/04/26 12:06:55;;;;;;;12.00;1.70;;;20.50;53.10;;;;;;5416327;26;19996;-74
2024/04/26 12:09:20;;;;;;;10.50;1.80;;;20.40;53.00;;;;;;5416170;26;19999;-75
2024/04/26 12:11:46;;;;;;;6.97;1.90;;;20.40;52.80;;;;;;5415836;26;20007;-74
2024/04/26 12:14:12;;;;;;;6.55;1.50;;;20.40;52.70;;;;;;5415943;26;20000;-73
2024/04/26 12:16:38;;;;;;;8.05;1.90;;;20.50;52.70;;;;;;5384628;26;20036;-73
2024/04/26 12:19:03;;;;;;;8.57;2.03;;;20.70;52.60;;;;;;5416124;26;20451;-74
2024/04/26 12:21:29;;;;;;;9.85;1.70;;;20.90;52.30;;;;;;5415894;26;19999;-74
2024/04/26 12:23:57;;;;;;;6.05;2.00;;;21.10;52.20;;;;;;5416007;26;20007;-73
2024/04/26 12:26:26;;;;;;;5.53;1.50;;;21.30;51.60;;;;;;5415625;26;20078;-74
2024/04/26 12:28:52;;;;;;;6.55;1.55;;;21.40;51.40;;;;;;5415704;26;20451;-73
2024/04/26 12:31:19;;;;;;;7.88;1.80;;;21.40;51.10;;;;;;5419495;26;20031;-73
2024/04/26 12:33:45;;;;;;;8.52;2.20;;;21.40;51.40;;;;;;5419127;26;20003;-75
2024/04/26 12:36:11;;;;;;;6.85;1.75;;;21.40;51.50;;;;;;5419338;26;20010;-74
2024/04/26 12:38:37;;;;;;;6.70;1.77;;;21.30;51.80;;;;;;5419162;26;20462;-74